Time;durP1;ratioP1;P1;durP2;ratioP2;P2;SDS_P1;SDS_P2;PMS_P1;PMS_P2;Temp;Humidity;BMP_temperature;BMP_pressure;BME280_temperature;BME280_humidity;BME280_pressure;Samples;Min_cycle;Max_cycle;Signal;HPM_P1;HPM_P2
2024/01/03 00:01:42;;;;;;;1.80;1.70;;;5.80;1.00;;;;;;5092035;28;20823;-68
2024/01/03 00:04:17;;;;;;;1.63;1.53;;;5.80;1.00;;;;;;5091830;28;20411;-66
2024/01/03 00:06:44;;;;;;;2.27;2.07;;;5.70;1.00;;;;;;5100842;28;20426;-68
2024/01/03 00:09:11;;;;;;;2.07;1.60;;;5.70;1.00;;;;;;5093953;28;20506;-66
2024/01/03 00:11:38;;;;;;;1.70;1.60;;;5.80;1.00;;;;;;5095187;28;20405;-66
2024/01/03 00:14:36;;;;;;;1.80;1.70;;;5.80;1.00;;;;;;5112187;28;20495;-66
2024/01/03 00:17:07;;;;;;;1.80;1.70;;;5.80;1.00;;;;;;5100916;28;20818;-66
2024/01/03 00:19:39;;;;;;;1.80;1.70;;;5.80;1.00;;;;;;5106371;28;20437;-67
2024/01/03 00:22:12;;;;;;;1.70;1.60;;;5.80;1.00;;;;;;5091100;28;20427;-66
2024/01/03 00:24:48;;;;;;;1.70;1.60;;;5.80;1.00;;;;;;5091897;28;20407;-67
2024/01/03 00:27:15;;;;;;;1.97;1.87;;;5.80;1.00;;;;;;5090681;28;20426;-68
2024/01/03 00:29:53;;;;;;;1.60;1.50;;;5.80;1.00;;;;;;5092529;28;20520;-69
2024/01/03 00:32:23;;;;;;;1.80;1.70;;;5.80;1.00;;;;;;5092606;28;20483;-67
2024/01/03 00:34:49;;;;;;;1.67;1.57;;;5.80;1.00;;;;;;5064276;28;20921;-67
2024/01/03 00:37:27;;;;;;;1.70;1.60;;;5.80;1.00;;;;;;5094311;28;20398;-67
2024/01/03 00:39:57;;;;;;;1.77;1.67;;;5.90;1.00;;;;;;5095393;28;20418;-66
2024/01/03 00:42:24;;;;;;;2.20;2.07;;;5.90;1.00;;;;;;5114019;28;20456;-68
2024/01/03 00:44:51;;;;;;;4.10;1.60;;;5.90;1.00;;;;;;5114537;28;20406;-66
2024/01/03 00:47:20;;;;;;;1.90;1.80;;;5.90;1.00;;;;;;5112087;28;20447;-67
2024/01/03 00:49:47;;;;;;;2.43;2.30;;;5.90;1.00;;;;;;5078437;28;20459;-69
2024/01/03 00:52:15;;;;;;;1.77;1.67;;;6.00;1.00;;;;;;5095543;28;20415;-70
2024/01/03 00:54:41;;;;;;;1.63;1.53;;;6.00;1.00;;;;;;5094195;28;20407;-67
2024/01/03 00:57:10;;;;;;;1.60;1.50;;;6.00;1.00;;;;;;5094833;28;20490;-67
2024/01/03 00:59:37;;;;;;;2.00;1.90;;;6.10;1.00;;;;;;5094431;28;20443;-68
2024/01/03 01:02:06;;;;;;;2.07;1.97;;;6.10;1.00;;;;;;5094795;28;20443;-68
2024/01/03 01:04:32;;;;;;;2.00;1.90;;;6.10;1.00;;;;;;5095284;28;20406;-80
2024/01/03 01:07:00;;;;;;;1.83;1.73;;;6.10;1.00;;;;;;5074853;28;20773;-67
2024/01/03 01:09:26;;;;;;;2.00;1.90;;;6.20;1.00;;;;;;5074137;28;20456;-69
2024/01/03 01:11:54;;;;;;;7.57;1.77;;;6.20;1.00;;;;;;5074124;28;20416;-67
2024/01/03 01:14:20;;;;;;;1.83;1.73;;;6.20;1.00;;;;;;5075457;28;20897;-68
2024/01/03 01:16:46;;;;;;;1.80;1.70;;;6.20;1.00;;;;;;5074735;28;20396;-67
2024/01/03 01:19:12;;;;;;;3.33;1.77;;;6.20;1.00;;;;;;5073480;28;20202;-67
2024/01/03 01:21:41;;;;;;;2.40;2.20;;;6.30;1.00;;;;;;5097061;28;20418;-69
2024/01/03 01:24:07;;;;;;;2.20;2.00;;;6.30;1.00;;;;;;5098145;28;20192;-68
2024/01/03 01:26:33;;;;;;;2.10;2.00;;;6.30;1.00;;;;;;5113804;28;20775;-67
2024/01/03 01:29:00;;;;;;;2.20;2.10;;;6.30;1.00;;;;;;5115657;28;20458;-67
2024/01/03 01:31:26;;;;;;;1.90;1.80;;;6.30;1.00;;;;;;5114299;28;20215;-67
2024/01/03 01:33:53;;;;;;;2.20;2.00;;;6.40;1.00;;;;;;5096385;28;20763;-67
2024/01/03 01:36:19;;;;;;;2.53;2.33;;;6.40;1.00;;;;;;5095883;28;20473;-70
2024/01/03 01:38:47;;;;;;;2.17;2.07;;;6.40;1.00;;;;;;5115258;28;20460;-66
2024/01/03 01:41:13;;;;;;;3.37;2.53;;;6.50;1.00;;;;;;5114602;28;20933;-67
2024/01/03 01:43:39;;;;;;;2.73;2.53;;;6.50;1.00;;;;;;5114360;28;20436;-68
2024/01/03 01:46:05;;;;;;;2.33;2.23;;;6.50;1.00;;;;;;5096499;28;20192;-67
2024/01/03 01:48:34;;;;;;;2.53;2.00;;;6.50;1.00;;;;;;5113816;28;20234;-75
2024/01/03 01:51:03;;;;;;;3.80;2.63;;;6.50;1.00;;;;;;5076178;28;20174;-67
2024/01/03 01:53:29;;;;;;;2.90;2.67;;;6.50;1.00;;;;;;5093533;28;20405;-75
2024/01/03 01:55:58;;;;;;;3.13;2.90;;;6.60;1.00;;;;;;5092151;28;20904;-67
2024/01/03 01:58:27;;;;;;;3.03;2.70;;;6.70;1.00;;;;;;5094921;28;20811;-67
2024/01/03 02:00:55;;;;;;;2.40;2.30;;;6.70;1.00;;;;;;5093877;28;20416;-68
2024/01/03 02:03:22;;;;;;;3.47;3.17;;;6.80;1.00;;;;;;5093290;28;20420;-67
2024/01/03 02:05:48;;;;;;;3.10;2.90;;;6.80;1.00;;;;;;5075748;28;20427;-68
2024/01/03 02:08:16;;;;;;;3.40;3.20;;;6.80;1.00;;;;;;5092635;28;20451;-68
2024/01/03 02:10:42;;;;;;;3.20;2.90;;;6.90;1.00;;;;;;5076615;28;20472;-71
2024/01/03 02:13:07;;;;;;;3.80;3.60;;;6.90;1.00;;;;;;5094062;28;20506;-67
2024/01/03 02:15:33;;;;;;;2.87;2.67;;;6.90;1.00;;;;;;5093410;28;20177;-70
2024/01/03 02:18:01;;;;;;;3.13;2.93;;;7.00;1.00;;;;;;5093220;28;20321;-67
2024/01/03 02:20:33;;;;;;;4.13;3.83;;;7.00;1.00;;;;;;5093280;28;20319;-68
2024/01/03 02:22:59;;;;;;;4.17;3.53;;;7.10;1.00;;;;;;5080467;28;20434;-67
2024/01/03 02:25:25;;;;;;;3.70;3.33;;;7.10;1.00;;;;;;5074531;28;20421;-67
2024/01/03 02:27:52;;;;;;;3.20;2.90;;;7.20;1.00;;;;;;5072788;28;20441;-68
2024/01/03 02:30:20;;;;;;;16.57;4.33;;;7.30;1.00;;;;;;5077099;28;20210;-67
2024/01/03 02:32:46;;;;;;;2.97;2.77;;;7.40;1.00;;;;;;5093801;28;20431;-67
2024/01/03 02:35:14;;;;;;;3.67;3.37;;;7.40;1.00;;;;;;5093322;28;20412;-67
2024/01/03 02:37:40;;;;;;;3.27;3.07;;;7.40;1.00;;;;;;5102575;28;20493;-68
2024/01/03 02:40:07;;;;;;;3.27;3.07;;;7.50;1.00;;;;;;5096483;28;20411;-68
2024/01/03 02:42:34;;;;;;;3.70;3.40;;;7.50;1.00;;;;;;5113178;28;20423;-68
2024/01/03 02:45:01;;;;;;;3.93;3.73;;;7.60;1.00;;;;;;5113460;28;20434;-67
2024/01/03 02:47:27;;;;;;;3.43;3.13;;;7.60;1.00;;;;;;5113273;28;20834;-67
2024/01/03 02:49:57;;;;;;;3.93;3.57;;;7.70;1.00;;;;;;5096191;28;20468;-67
2024/01/03 02:52:29;;;;;;;4.27;3.97;;;7.70;1.00;;;;;;5087260;28;20188;-68
2024/01/03 02:54:57;;;;;;;3.50;3.17;;;7.80;1.00;;;;;;5071810;28;20503;-68
2024/01/03 02:57:25;;;;;;;3.47;3.27;;;7.80;1.00;;;;;;5073624;28;20459;-68
2024/01/03 02:59:51;;;;;;;3.57;3.30;;;7.80;1.00;;;;;;5075876;28;20819;-67
2024/01/03 03:02:16;;;;;;;2.67;2.57;;;7.80;1.00;;;;;;5093652;28;20424;-68
2024/01/03 03:04:43;;;;;;;2.90;2.00;;;7.90;1.00;;;;;;5092837;28;20247;-67
2024/01/03 03:07:09;;;;;;;2.50;2.30;;;8.00;1.00;;;;;;5096452;28;20262;-67
2024/01/03 03:09:34;;;;;;;3.50;2.47;;;8.00;1.00;;;;;;5113682;28;21019;-66
2024/01/03 03:12:00;;;;;;;7.07;2.50;;;8.10;1.00;;;;;;5095823;28;20211;-66
2024/01/03 03:14:26;;;;;;;2.53;2.33;;;8.10;1.00;;;;;;5113557;28;20180;-69
2024/01/03 03:16:54;;;;;;;2.13;2.03;;;8.10;1.00;;;;;;5113140;28;20191;-69
2024/01/03 03:19:20;;;;;;;2.27;1.70;;;8.20;1.00;;;;;;5095789;28;20244;-66
2024/01/03 03:21:46;;;;;;;2.10;1.37;;;8.20;1.00;;;;;;5112545;28;20449;-67
2024/01/03 03:24:12;;;;;;;2.40;1.37;;;8.10;1.00;;;;;;5113755;28;20169;-72
2024/01/03 03:26:40;;;;;;;15.20;1.70;;;8.10;1.00;;;;;;5103572;28;20178;-67
2024/01/03 03:29:06;;;;;;;2.20;1.60;;;8.10;1.00;;;;;;5091823;28;20463;-68
2024/01/03 03:31:32;;;;;;;1.70;1.60;;;8.10;1.00;;;;;;5075421;28;20757;-69
2024/01/03 03:33:57;;;;;;;2.10;1.77;;;8.10;1.00;;;;;;5093473;28;20395;-68
2024/01/03 03:36:23;;;;;;;2.50;1.40;;;8.10;1.00;;;;;;5092719;28;20242;-67
2024/01/03 03:38:51;;;;;;;2.30;1.60;;;8.10;1.00;;;;;;5110752;28;20213;-67
2024/01/03 03:41:19;;;;;;;2.67;1.30;;;8.00;1.00;;;;;;5112237;28;20644;-68
2024/01/03 03:43:46;;;;;;;1.53;1.43;;;8.00;1.00;;;;;;5094968;28;20418;-67
2024/01/03 03:46:16;;;;;;;1.70;1.60;;;8.00;1.00;;;;;;5111702;28;20430;-69
2024/01/03 03:48:43;;;;;;;2.57;1.60;;;7.90;1.00;;;;;;5113283;28;20557;-67
2024/01/03 03:51:11;;;;;;;3.43;1.50;;;7.90;1.00;;;;;;5112171;28;20923;-68
2024/01/03 03:53:39;;;;;;;1.50;1.40;;;7.90;1.00;;;;;;5093102;28;20795;-67
2024/01/03 03:56:06;;;;;;;1.43;1.30;;;8.00;1.00;;;;;;5092210;28;20399;-67
2024/01/03 03:58:32;;;;;;;1.60;1.50;;;7.90;1.00;;;;;;5092955;28;20401;-67
2024/01/03 04:00:59;;;;;;;1.40;1.30;;;7.90;1.00;;;;;;5091639;28;20421;-66
2024/01/03 04:03:25;;;;;;;1.53;1.43;;;7.90;1.00;;;;;;5091281;28;20410;-68
2024/01/03 04:05:50;;;;;;;2.80;1.40;;;7.90;1.00;;;;;;5090983;28;20411;-67
2024/01/03 04:08:18;;;;;;;1.67;1.47;;;7.90;1.00;;;;;;5110537;28;20438;-67
2024/01/03 04:10:45;;;;;;;1.47;1.37;;;7.80;1.00;;;;;;5113261;28;20675;-67
2024/01/03 04:13:11;;;;;;;1.80;1.70;;;7.80;1.00;;;;;;5113123;28;20404;-68
2024/01/03 04:15:36;;;;;;;1.40;1.30;;;7.80;1.00;;;;;;5111140;28;20466;-67
2024/01/03 04:18:07;;;;;;;1.53;1.43;;;7.90;1.00;;;;;;5115636;28;20229;-69
2024/01/03 04:20:35;;;;;;;2.80;1.30;;;7.90;1.00;;;;;;5107386;28;20794;-69
2024/01/03 04:23:01;;;;;;;1.50;1.40;;;7.80;1.00;;;;;;5082294;28;20420;-71
2024/01/03 04:25:27;;;;;;;1.30;1.20;;;7.80;1.00;;;;;;5075683;28;20449;-67
2024/01/03 04:27:52;;;;;;;1.30;1.20;;;7.80;1.00;;;;;;5075219;28;20487;-67
2024/01/03 04:30:18;;;;;;;1.33;1.23;;;7.80;1.00;;;;;;5076154;28;20217;-68
2024/01/03 04:32:44;;;;;;;6.10;1.47;;;7.80;1.00;;;;;;5075298;28;20178;-67
2024/01/03 04:35:10;;;;;;;1.70;1.60;;;7.90;1.00;;;;;;5075371;28;20603;-67
2024/01/03 04:37:38;;;;;;;2.20;1.37;;;7.90;1.00;;;;;;5083466;28;20693;-69
2024/01/03 04:40:05;;;;;;;1.87;1.63;;;7.80;1.00;;;;;;5096341;28;20395;-67
2024/01/03 04:42:31;;;;;;;1.50;1.40;;;7.80;1.00;;;;;;5096430;28;20408;-68
2024/01/03 04:44:57;;;;;;;1.77;1.67;;;7.80;1.00;;;;;;5095674;28;20389;-67
2024/01/03 04:47:23;;;;;;;1.70;1.60;;;7.80;1.00;;;;;;5095240;28;20208;-66
2024/01/03 04:49:49;;;;;;;1.60;1.50;;;7.70;1.00;;;;;;5094999;28;20447;-67
2024/01/03 04:52:16;;;;;;;3.03;1.47;;;7.80;1.00;;;;;;5094395;28;20239;-67
2024/01/03 04:54:44;;;;;;;3.33;1.67;;;7.70;1.00;;;;;;5094477;28;20212;-66
2024/01/03 04:57:10;;;;;;;1.77;1.20;;;7.70;1.00;;;;;;5095006;28;20395;-67
2024/01/03 04:59:37;;;;;;;1.40;1.30;;;7.70;1.00;;;;;;5094750;28;20522;-68
2024/01/03 05:02:04;;;;;;;2.07;1.57;;;7.70;1.00;;;;;;5095005;28;20408;-66
2024/01/03 05:04:31;;;;;;;1.57;1.40;;;7.70;1.00;;;;;;5094434;28;20452;-80
2024/01/03 05:06:57;;;;;;;1.50;1.40;;;7.70;1.00;;;;;;5095873;28;20482;-67
2024/01/03 05:09:24;;;;;;;3.43;1.70;;;7.70;1.00;;;;;;5094772;28;20564;-67
2024/01/03 05:11:51;;;;;;;1.63;1.40;;;7.70;1.00;;;;;;5077885;28;20415;-67
2024/01/03 05:14:19;;;;;;;1.20;1.10;;;7.80;1.00;;;;;;5094834;28;20454;-68
2024/01/03 05:16:46;;;;;;;1.50;1.40;;;7.70;1.00;;;;;;5102305;28;20888;-69
2024/01/03 05:19:12;;;;;;;1.70;1.50;;;7.70;1.00;;;;;;5115727;28;20509;-67
2024/01/03 05:21:38;;;;;;;1.83;1.10;;;7.70;1.00;;;;;;5080069;28;20422;-69
2024/01/03 05:24:04;;;;;;;1.40;1.30;;;7.70;1.00;;;;;;5115299;28;20153;-67
2024/01/03 05:26:30;;;;;;;1.90;1.80;;;7.70;1.00;;;;;;5114474;28;20181;-67
2024/01/03 05:28:56;;;;;;;1.93;1.30;;;7.70;1.00;;;;;;5113866;28;20784;-68
2024/01/03 05:31:23;;;;;;;1.30;1.20;;;7.70;1.00;;;;;;5115927;28;20426;-67
2024/01/03 05:33:49;;;;;;;1.50;1.13;;;7.70;1.00;;;;;;5114452;28;20204;-67
2024/01/03 05:36:14;;;;;;;1.50;1.40;;;7.60;1.00;;;;;;5113593;28;20446;-71
2024/01/03 05:38:41;;;;;;;2.00;1.40;;;7.60;1.00;;;;;;5094937;28;20202;-68
2024/01/03 05:41:08;;;;;;;1.40;1.30;;;7.70;1.00;;;;;;5094566;28;20208;-67
2024/01/03 05:43:34;;;;;;;2.17;1.40;;;7.70;1.00;;;;;;5094794;28;20387;-69
2024/01/03 05:46:00;;;;;;;1.37;1.20;;;7.70;1.00;;;;;;5076152;28;21185;-68
2024/01/03 05:48:27;;;;;;;1.50;1.40;;;7.60;1.00;;;;;;5057964;28;20225;-67
2024/01/03 05:50:54;;;;;;;1.53;1.43;;;7.60;1.00;;;;;;5074259;28;20384;-68
2024/01/03 05:53:20;;;;;;;1.70;1.60;;;7.60;1.00;;;;;;5068847;28;20428;-67
2024/01/03 05:55:47;;;;;;;1.57;1.47;;;7.60;1.00;;;;;;5074191;28;20400;-69
2024/01/03 05:58:13;;;;;;;1.47;1.37;;;7.50;1.00;;;;;;5073331;28;20793;-67
2024/01/03 06:00:39;;;;;;;1.60;1.33;;;7.50;1.00;;;;;;5074805;28;20404;-68
2024/01/03 06:03:05;;;;;;;3.40;1.70;;;7.50;1.00;;;;;;5075052;28;20416;-68
2024/01/03 06:05:30;;;;;;;1.57;1.47;;;7.50;1.00;;;;;;5074691;28;20177;-72
2024/01/03 06:07:56;;;;;;;2.47;1.30;;;7.50;1.00;;;;;;5073514;28;20194;-67
2024/01/03 06:10:22;;;;;;;1.40;1.30;;;7.50;1.00;;;;;;5073648;28;20212;-69
2024/01/03 06:12:49;;;;;;;3.43;1.53;;;7.50;1.00;;;;;;5073655;28;20174;-68
2024/01/03 06:15:16;;;;;;;5.07;1.73;;;7.50;1.00;;;;;;5073062;28;20189;-68
2024/01/03 06:17:42;;;;;;;1.83;1.73;;;7.50;1.00;;;;;;5056759;28;21034;-69
2024/01/03 06:20:09;;;;;;;1.97;1.37;;;7.40;1.00;;;;;;5076943;28;20456;-70
2024/01/03 06:22:35;;;;;;;1.30;1.20;;;7.40;1.00;;;;;;5114345;28;20169;-67
2024/01/03 06:25:00;;;;;;;2.67;1.43;;;7.40;1.00;;;;;;5114696;28;20938;-70
2024/01/03 06:27:27;;;;;;;1.30;1.20;;;7.40;1.00;;;;;;5115249;28;20590;-68
2024/01/03 06:29:53;;;;;;;3.20;2.07;;;7.40;1.00;;;;;;5096321;28;20665;-70
2024/01/03 06:32:18;;;;;;;1.60;1.50;;;7.40;1.00;;;;;;5096044;28;20417;-71
2024/01/03 06:34:44;;;;;;;1.60;1.50;;;7.40;1.00;;;;;;5091612;28;20236;-69
2024/01/03 06:37:10;;;;;;;1.80;1.47;;;7.40;1.00;;;;;;5091083;28;20169;-68
2024/01/03 06:39:35;;;;;;;1.50;1.40;;;7.40;1.00;;;;;;5094532;28;20166;-72
2024/01/03 06:42:02;;;;;;;1.60;1.50;;;7.50;1.00;;;;;;5093322;28;20182;-72
2024/01/03 06:44:28;;;;;;;2.80;1.40;;;7.50;1.00;;;;;;5092988;28;20411;-74
2024/01/03 06:46:54;;;;;;;1.57;1.20;;;7.50;1.00;;;;;;5092120;28;20423;-70
2024/01/03 06:49:21;;;;;;;1.57;1.47;;;7.50;1.00;;;;;;5085211;28;20201;-69
2024/01/03 06:51:48;;;;;;;1.87;1.60;;;7.50;1.00;;;;;;5101354;28;20935;-68
2024/01/03 06:54:14;;;;;;;3.90;1.40;;;7.50;1.00;;;;;;5092805;28;20959;-70
2024/01/03 06:56:40;;;;;;;2.70;1.77;;;7.50;1.00;;;;;;5087284;28;20401;-69
2024/01/03 06:59:07;;;;;;;3.40;2.20;;;7.50;1.00;;;;;;5061730;28;20229;-69
2024/01/03 07:01:34;;;;;;;2.43;1.60;;;7.60;1.00;;;;;;5095923;28;20422;-69
2024/01/03 07:04:01;;;;;;;4.83;1.60;;;7.60;1.00;;;;;;5114636;28;20917;-68
2024/01/03 07:06:27;;;;;;;10.37;3.10;;;7.60;1.00;;;;;;5113048;28;20485;-69
2024/01/03 07:08:53;;;;;;;1.83;1.73;;;7.60;1.00;;;;;;5096278;28;20542;-68
2024/01/03 07:11:20;;;;;;;5.00;2.07;;;7.60;1.00;;;;;;5114739;28;20778;-67
2024/01/03 07:13:46;;;;;;;1.60;1.50;;;7.60;1.00;;;;;;5096342;28;20388;-68
2024/01/03 07:16:13;;;;;;;3.33;1.83;;;7.60;1.00;;;;;;5112984;28;20417;-67
2024/01/03 07:18:40;;;;;;;3.27;1.80;;;7.60;1.00;;;;;;5113158;28;20453;-68
2024/01/03 07:21:08;;;;;;;3.20;1.60;;;7.60;1.00;;;;;;5107302;28;20433;-68
2024/01/03 07:23:34;;;;;;;6.10;1.67;;;7.60;1.00;;;;;;5075973;28;20416;-67
2024/01/03 07:26:01;;;;;;;9.73;2.10;;;7.60;1.00;;;;;;5091937;28;20487;-67
2024/01/03 07:28:27;;;;;;;2.20;1.57;;;7.70;1.00;;;;;;5092197;28;20445;-68
2024/01/03 07:30:53;;;;;;;3.50;1.80;;;7.70;1.00;;;;;;5075623;28;20526;-67
2024/01/03 07:33:21;;;;;;;2.03;1.77;;;7.60;1.00;;;;;;5075842;28;20641;-67
2024/01/03 07:35:47;;;;;;;8.63;2.63;;;7.70;1.00;;;;;;5091982;28;20383;-67
2024/01/03 07:38:12;;;;;;;4.43;1.90;;;7.70;1.00;;;;;;5092591;28;20462;-70
2024/01/03 07:40:39;;;;;;;1.73;1.63;;;7.80;1.00;;;;;;5093259;28;20582;-68
2024/01/03 07:43:06;;;;;;;2.03;1.67;;;7.80;1.00;;;;;;5093327;28;20158;-67
2024/01/03 07:45:34;;;;;;;12.00;1.97;;;7.80;1.00;;;;;;5075200;28;20416;-66
2024/01/03 07:48:01;;;;;;;2.53;2.17;;;7.70;1.00;;;;;;5092123;28;20455;-68
2024/01/03 07:50:27;;;;;;;7.37;2.07;;;7.70;1.00;;;;;;5093508;28;20459;-69
2024/01/03 07:52:53;;;;;;;2.67;1.37;;;7.70;1.00;;;;;;5112086;28;20539;-69
2024/01/03 07:55:18;;;;;;;5.80;2.10;;;7.80;1.00;;;;;;5112824;28;20168;-67
2024/01/03 07:57:44;;;;;;;3.43;2.10;;;7.80;1.00;;;;;;5112075;28;20194;-70
2024/01/03 08:00:12;;;;;;;2.70;1.90;;;7.80;1.00;;;;;;5113741;28;20191;-68
2024/01/03 08:02:39;;;;;;;7.67;2.33;;;7.80;1.00;;;;;;5111167;28;20234;-70
2024/01/03 08:05:07;;;;;;;2.30;1.63;;;7.80;1.00;;;;;;5111969;28;20415;-68
2024/01/03 08:07:35;;;;;;;4.90;1.80;;;7.80;1.00;;;;;;5088239;28;20436;-67
2024/01/03 08:10:02;;;;;;;6.10;1.90;;;7.80;1.00;;;;;;5072108;28;20510;-69
2024/01/03 08:12:28;;;;;;;4.70;1.90;;;7.80;1.00;;;;;;5072088;28;20419;-68
2024/01/03 08:14:54;;;;;;;2.10;1.73;;;7.80;1.00;;;;;;5071403;28;20408;-69
2024/01/03 08:17:20;;;;;;;2.33;1.30;;;7.80;1.00;;;;;;5071623;28;20232;-69
2024/01/03 08:19:47;;;;;;;1.80;1.70;;;7.80;1.00;;;;;;5071770;28;20178;-68
2024/01/03 08:22:14;;;;;;;2.53;1.70;;;7.80;1.00;;;;;;5073092;28;20166;-69
2024/01/03 08:24:40;;;;;;;2.70;1.63;;;7.80;1.00;;;;;;5072397;28;20403;-67
2024/01/03 08:27:08;;;;;;;2.37;1.87;;;7.80;1.00;;;;;;5071717;28;20796;-67
2024/01/03 08:29:36;;;;;;;2.37;2.17;;;7.80;1.00;;;;;;5071621;28;20230;-67
2024/01/03 08:32:03;;;;;;;2.13;1.63;;;7.80;1.00;;;;;;5072810;28;20916;-67
2024/01/03 08:34:30;;;;;;;1.80;1.70;;;7.80;1.00;;;;;;5071810;28;20866;-72
2024/01/03 08:36:55;;;;;;;2.70;1.90;;;7.80;1.00;;;;;;5084027;28;20383;-71
2024/01/03 08:39:22;;;;;;;2.80;1.83;;;7.80;1.00;;;;;;5092777;28;20514;-67
2024/01/03 08:41:53;;;;;;;2.60;1.80;;;7.80;1.00;;;;;;5092952;28;20320;-67
2024/01/03 08:44:20;;;;;;;2.40;1.40;;;7.80;1.00;;;;;;5075274;28;20472;-67
2024/01/03 08:46:47;;;;;;;1.60;1.50;;;7.80;1.00;;;;;;5092610;28;20395;-66
2024/01/03 08:49:13;;;;;;;3.13;1.50;;;7.90;1.00;;;;;;5091260;28;20998;-67
2024/01/03 08:51:39;;;;;;;4.33;2.83;;;7.80;1.00;;;;;;5093695;28;20403;-66
2024/01/03 08:54:07;;;;;;;2.20;2.00;;;7.80;1.00;;;;;;5091634;28;20486;-67
2024/01/03 08:56:32;;;;;;;2.40;2.20;;;7.80;1.00;;;;;;5092319;28;20467;-67
2024/01/03 08:58:59;;;;;;;4.23;2.03;;;7.80;1.00;;;;;;5092679;28;20832;-67
2024/01/03 09:01:27;;;;;;;5.73;1.93;;;7.80;1.00;;;;;;5091652;28;20695;-67
2024/01/03 09:03:55;;;;;;;2.10;1.83;;;7.80;1.00;;;;;;5091677;28;21018;-66
2024/01/03 09:06:22;;;;;;;3.73;1.90;;;7.80;1.00;;;;;;5071397;28;20461;-67
2024/01/03 09:08:51;;;;;;;1.70;1.60;;;7.80;1.00;;;;;;5075709;28;20459;-67
2024/01/03 09:11:23;;;;;;;3.70;2.03;;;7.80;1.00;;;;;;5075838;28;21097;-67
2024/01/03 09:13:49;;;;;;;3.43;1.80;;;7.80;1.00;;;;;;5074604;28;20428;-67
2024/01/03 09:16:30;;;;;;;3.63;1.80;;;7.80;1.00;;;;;;5075186;28;20839;-68
2024/01/03 09:18:56;;;;;;;1.77;1.43;;;7.70;1.00;;;;;;5074539;28;20432;-68
2024/01/03 09:21:23;;;;;;;2.80;1.73;;;7.80;1.00;;;;;;5074686;28;20411;-68
2024/01/03 09:23:50;;;;;;;2.50;2.20;;;7.80;1.00;;;;;;5116359;28;20468;-68
2024/01/03 09:26:19;;;;;;;1.77;1.67;;;7.80;1.00;;;;;;5102277;28;20468;-68
2024/01/03 09:28:47;;;;;;;2.17;1.87;;;7.80;1.00;;;;;;5092999;28;21145;-66
2024/01/03 09:31:14;;;;;;;8.30;2.20;;;7.80;1.00;;;;;;5094158;28;20428;-73
2024/01/03 09:33:40;;;;;;;2.50;2.07;;;7.80;1.00;;;;;;5077450;28;20412;-68
2024/01/03 09:36:06;;;;;;;2.30;1.87;;;7.80;1.00;;;;;;5107026;28;20515;-67
2024/01/03 09:38:34;;;;;;;1.70;1.60;;;7.80;1.00;;;;;;5115019;28;20189;-67
2024/01/03 09:41:01;;;;;;;2.43;1.60;;;7.80;1.00;;;;;;5115756;28;20407;-67
2024/01/03 09:43:26;;;;;;;2.63;2.17;;;7.80;1.00;;;;;;5114793;28;20936;-70
2024/01/03 09:45:52;;;;;;;2.27;1.87;;;7.70;1.00;;;;;;5115022;28;20434;-68
2024/01/03 09:48:18;;;;;;;8.87;2.20;;;7.70;1.00;;;;;;5114724;28;20196;-69
2024/01/03 09:50:44;;;;;;;2.30;2.10;;;7.80;1.00;;;;;;5114011;28;20400;-68
2024/01/03 09:53:13;;;;;;;3.30;2.00;;;7.80;1.00;;;;;;5097828;28;20630;-69
2024/01/03 09:55:43;;;;;;;3.67;2.10;;;7.80;1.00;;;;;;5114413;28;20391;-69
2024/01/03 09:58:09;;;;;;;4.00;2.03;;;7.80;1.00;;;;;;5113797;28;20919;-69
2024/01/03 10:00:37;;;;;;;6.20;2.03;;;7.80;1.00;;;;;;5115780;28;20398;-70
2024/01/03 10:03:07;;;;;;;4.13;2.20;;;7.80;1.00;;;;;;5114539;28;20169;-68
2024/01/03 10:05:34;;;;;;;9.37;2.33;;;7.80;1.00;;;;;;5089439;28;20546;-66
2024/01/03 10:08:14;;;;;;;2.80;1.60;;;7.80;1.00;;;;;;5072903;28;20967;-68
2024/01/03 10:10:43;;;;;;;3.30;1.83;;;7.80;1.00;;;;;;5073800;28;20456;-67
2024/01/03 10:13:17;;;;;;;4.10;2.20;;;7.80;1.00;;;;;;5073864;28;20737;-68
2024/01/03 10:15:44;;;;;;;5.97;2.20;;;7.80;1.00;;;;;;5055540;28;20423;-68
2024/01/03 10:18:13;;;;;;;2.40;1.73;;;7.90;1.00;;;;;;5073360;28;20428;-67
2024/01/03 10:20:39;;;;;;;2.20;1.97;;;7.90;1.00;;;;;;5095418;28;20493;-67
2024/01/03 10:23:14;;;;;;;5.33;2.33;;;7.90;1.00;;;;;;5115050;28;20464;-68
2024/01/03 10:25:44;;;;;;;2.07;1.87;;;8.00;1.00;;;;;;5113504;28;20183;-71
2024/01/03 10:28:17;;;;;;;2.10;1.83;;;8.00;1.00;;;;;;5102617;28;20892;-68
2024/01/03 10:30:43;;;;;;;2.60;1.50;;;8.00;1.00;;;;;;5074315;28;20466;-66
2024/01/03 10:33:10;;;;;;;6.93;1.93;;;8.10;1.00;;;;;;5073272;28;20413;-66
2024/01/03 10:35:37;;;;;;;2.37;2.27;;;8.10;1.00;;;;;;5112412;28;20734;-67
2024/01/03 10:38:04;;;;;;;2.23;2.03;;;8.10;1.00;;;;;;5076816;28;20431;-67
2024/01/03 10:40:36;;;;;;;3.63;2.13;;;8.10;1.00;;;;;;5074222;28;20404;-68
2024/01/03 10:43:03;;;;;;;2.43;2.00;;;8.00;1.00;;;;;;5073999;28;20425;-67
2024/01/03 10:45:30;;;;;;;1.63;1.53;;;8.10;1.00;;;;;;5072734;28;20833;-67
2024/01/03 10:47:57;;;;;;;3.13;2.00;;;8.10;1.00;;;;;;5072627;28;20440;-68
2024/01/03 10:50:23;;;;;;;2.60;1.83;;;8.10;1.00;;;;;;5093613;28;20436;-67
2024/01/03 10:52:55;;;;;;;2.90;1.70;;;8.10;1.00;;;;;;5094130;28;20399;-67
2024/01/03 10:55:25;;;;;;;4.67;1.73;;;8.10;1.00;;;;;;5093229;28;20412;-66
2024/01/03 10:57:53;;;;;;;3.50;1.73;;;8.10;1.00;;;;;;5094159;28;20419;-67
2024/01/03 11:00:57;;;;;;;2.33;1.97;;;8.10;1.00;;;;;;5092509;28;20410;-67
2024/01/03 11:03:45;;;;;;;1.50;1.40;;;8.20;1.00;;;;;;5093730;28;20391;-66
2024/01/03 11:06:41;;;;;;;3.00;1.90;;;8.10;1.00;;;;;;5113078;28;20409;-67
2024/01/03 11:09:07;;;;;;;3.93;1.90;;;8.10;1.00;;;;;;5113555;28;20478;-68
2024/01/03 11:11:34;;;;;;;3.00;2.00;;;8.10;1.00;;;;;;5114258;28;20780;-67
2024/01/03 11:14:01;;;;;;;3.53;1.50;;;8.10;1.00;;;;;;5114143;28;20460;-67
2024/01/03 11:16:38;;;;;;;4.33;1.90;;;8.10;1.00;;;;;;5111330;28;20496;-68
2024/01/03 11:19:04;;;;;;;8.80;2.10;;;8.10;1.00;;;;;;5104687;28;20922;-67
2024/01/03 11:21:35;;;;;;;3.83;2.17;;;8.10;1.00;;;;;;5072687;28;20757;-67
2024/01/03 11:24:24;;;;;;;4.93;1.93;;;8.10;1.00;;;;;;5072109;28;20421;-67
2024/01/03 11:26:55;;;;;;;3.00;2.23;;;8.10;1.00;;;;;;5066198;28;20447;-67
2024/01/03 11:29:42;;;;;;;2.13;1.53;;;8.10;1.00;;;;;;5073286;28;20452;-67
2024/01/03 11:32:32;;;;;;;9.10;2.40;;;8.10;1.00;;;;;;5096734;28;20482;-66
2024/01/03 11:34:58;;;;;;;1.83;1.70;;;8.10;1.00;;;;;;5111727;28;20411;-66
2024/01/03 11:37:30;;;;;;;1.90;1.60;;;8.10;1.00;;;;;;5100929;28;20497;-73
2024/01/03 11:39:57;;;;;;;2.03;1.80;;;8.10;1.00;;;;;;5091935;28;20386;-66
2024/01/03 11:42:33;;;;;;;5.93;2.47;;;8.10;1.00;;;;;;5092188;28;20415;-67
2024/01/03 11:45:08;;;;;;;4.97;2.30;;;8.10;1.00;;;;;;5092433;28;20394;-67
2024/01/03 11:47:38;;;;;;;1.73;1.60;;;8.20;1.00;;;;;;5091696;28;20498;-67
2024/01/03 11:50:05;;;;;;;4.60;2.80;;;8.10;1.00;;;;;;5092760;28;20462;-66
2024/01/03 11:52:36;;;;;;;6.13;2.07;;;8.20;1.00;;;;;;5093245;28;20400;-66
2024/01/03 11:55:07;;;;;;;4.77;1.90;;;8.20;1.00;;;;;;5091671;28;20374;-68
2024/01/03 11:57:40;;;;;;;1.73;1.60;;;8.30;1.00;;;;;;5092777;28;20420;-68
2024/01/03 12:00:08;;;;;;;7.67;2.50;;;8.30;1.00;;;;;;5093480;28;20408;-68
2024/01/03 12:02:33;;;;;;;2.57;1.90;;;8.30;1.00;;;;;;5092994;28;20443;-66
2024/01/03 12:05:04;;;;;;;7.10;2.30;;;8.30;1.00;;;;;;5085916;28;20389;-66
2024/01/03 12:07:33;;;;;;;2.30;1.60;;;8.30;1.00;;;;;;5071587;28;20194;-68
2024/01/03 12:09:59;;;;;;;6.73;1.80;;;8.30;99.90;;;;;;5072907;28;20443;-67
2024/01/03 12:12:25;;;;;;;2.30;2.20;;;8.30;99.90;;;;;;5072604;28;20823;-68
2024/01/03 12:14:53;;;;;;;5.57;2.43;;;8.30;99.90;;;;;;5082733;28;20399;-67
2024/01/03 12:17:32;;;;;;;2.17;1.97;;;8.40;99.90;;;;;;5093061;28;20409;-66
2024/01/03 12:20:11;;;;;;;5.43;3.03;;;8.40;99.90;;;;;;5092483;28;20407;-67
2024/01/03 12:22:37;;;;;;;2.73;2.03;;;8.40;99.90;;;;;;5092993;28;20410;-68
2024/01/03 12:25:03;;;;;;;3.27;2.03;;;8.40;99.90;;;;;;5092208;28;20376;-67
2024/01/03 12:27:31;;;;;;;3.77;1.90;;;8.40;99.90;;;;;;5092937;28;20442;-66
2024/01/03 12:30:17;;;;;;;9.30;2.33;;;8.40;99.90;;;;;;5091115;28;20456;-66
2024/01/03 12:32:47;;;;;;;4.47;1.57;;;8.50;99.90;;;;;;5092107;28;20408;-67
2024/01/03 12:35:13;;;;;;;1.90;1.80;;;8.40;99.90;;;;;;5086279;28;20395;-66
2024/01/03 12:37:46;;;;;;;3.20;1.87;;;8.50;99.90;;;;;;5072639;28;20741;-67
2024/01/03 12:40:16;;;;;;;7.80;1.93;;;8.50;99.90;;;;;;5076523;28;20178;-66
2024/01/03 12:42:43;;;;;;;4.27;1.77;;;8.50;99.90;;;;;;5086488;28;20386;-67
2024/01/03 12:45:10;;;;;;;2.23;2.07;;;8.40;99.90;;;;;;5095594;28;20957;-66
2024/01/03 12:47:36;;;;;;;5.47;1.80;;;8.50;99.90;;;;;;5096341;28;20886;-66
2024/01/03 12:50:01;;;;;;;9.43;2.13;;;8.50;99.90;;;;;;5095639;28;20423;-66
2024/01/03 12:52:29;;;;;;;3.83;1.90;;;8.40;99.90;;;;;;5116925;28;20479;-68
2024/01/03 12:54:56;;;;;;;5.43;2.10;;;8.40;99.90;;;;;;5116029;28;20171;-67
2024/01/03 12:57:22;;;;;;;3.00;1.70;;;8.40;99.90;;;;;;5115731;28;20517;-68
2024/01/03 12:59:48;;;;;;;2.73;1.70;;;8.40;99.90;;;;;;5115466;28;20499;-70
2024/01/03 13:02:14;;;;;;;3.63;1.60;;;8.40;99.90;;;;;;5116851;28;20414;-69
2024/01/03 13:04:40;;;;;;;2.90;1.47;;;8.40;99.90;;;;;;5115187;28;20461;-72
2024/01/03 13:07:06;;;;;;;3.23;1.77;;;8.40;99.90;;;;;;5116103;28;20595;-71
2024/01/03 13:09:32;;;;;;;6.43;1.87;;;8.30;99.90;;;;;;5115479;28;20454;-70
2024/01/03 13:11:57;;;;;;;3.20;1.90;;;8.40;99.90;;;;;;5114529;28;20181;-70